createdAt,value
2018-12-27T00:00:07.613Z,7.22
2018-12-27T00:01:19.227Z,8.45
2018-12-27T00:02:28.317Z,8.30
2018-12-27T00:03:35.449Z,8.00
2018-12-27T00:04:42.131Z,8.08
2018-12-27T00:05:48.555Z,7.90
2018-12-27T00:06:55.040Z,8.30
2018-12-27T00:08:02.944Z,7.92
2018-12-27T00:09:09.666Z,7.45
2018-12-27T00:10:16.165Z,8.25
2018-12-27T00:11:23.928Z,8.43
2018-12-27T00:12:30.390Z,8.55
2018-12-27T00:13:36.974Z,8.28
2018-12-27T00:14:44.620Z,7.90
2018-12-27T00:15:55.987Z,8.10
2018-12-27T00:17:02.576Z,7.97
2018-12-27T00:18:09.171Z,8.50
2018-12-27T00:19:16.894Z,8.28
2018-12-27T00:20:23.385Z,8.28
2018-12-27T00:21:30.042Z,7.72
2018-12-27T00:22:37.558Z,8.23
2018-12-27T00:23:44.093Z,8.33
2018-12-27T00:24:53.287Z,8.18
2018-12-27T00:25:59.845Z,8.68
2018-12-27T00:27:06.409Z,8.18
2018-12-27T00:28:15.593Z,9.48
2018-12-27T00:29:21.916Z,8.75
2018-12-27T00:30:28.509Z,9.18
2018-12-27T00:31:34.921Z,9.43
2018-12-27T00:32:41.304Z,9.20
2018-12-27T00:33:49.628Z,9.75
2018-12-27T00:34:56.431Z,8.78
2018-12-27T00:36:03.504Z,8.43
2018-12-27T00:37:10.053Z,9.15
2018-12-27T00:38:16.874Z,9.15
2018-12-27T00:39:24.368Z,8.75
2018-12-27T00:40:31.287Z,8.48
2018-12-27T00:41:39.542Z,9.33
2018-12-27T00:42:47.483Z,9.28
2018-12-27T00:43:55.317Z,9.03
2018-12-27T00:45:03.700Z,9.10
2018-12-27T00:46:12.209Z,9.35
2018-12-27T00:47:20.371Z,9.48
2018-12-27T00:48:27.771Z,9.05
2018-12-27T00:49:36.821Z,8.73
2018-12-27T00:50:45.520Z,9.40
2018-12-27T00:51:52.213Z,9.23
2018-12-27T00:52:58.729Z,8.75
2018-12-27T00:54:05.409Z,9.68
2018-12-27T00:55:12.125Z,9.43
2018-12-27T00:56:18.802Z,9.88
2018-12-27T00:57:25.450Z,9.43
2018-12-27T00:58:34.243Z,8.90
2018-12-27T00:59:40.994Z,10.18
2018-12-27T01:00:47.544Z,9.48
2018-12-27T01:01:54.271Z,9.10
2018-12-27T01:03:01.232Z,9.15
2018-12-27T01:04:09.111Z,8.98
2018-12-27T01:05:15.668Z,9.38
2018-12-27T01:06:22.540Z,8.85
2018-12-27T01:07:29.123Z,8.58
2018-12-27T01:08:38.693Z,8.93
2018-12-27T01:09:45.202Z,7.97
2018-12-27T01:10:56.306Z,8.60
2018-12-27T01:12:02.999Z,8.25
2018-12-27T01:13:10.608Z,8.85
2018-12-27T01:14:17.184Z,9.30
2018-12-27T01:15:23.855Z,8.38
2018-12-27T01:16:30.326Z,9.50
2018-12-27T01:17:37.486Z,8.65
2018-12-27T01:18:44.071Z,8.10
2018-12-27T01:19:50.686Z,9.15
2018-12-27T01:20:57.359Z,9.00
2018-12-27T01:22:04.130Z,8.80
2018-12-27T01:23:10.722Z,8.03
2018-12-27T01:24:17.552Z,8.98
2018-12-27T01:25:24.139Z,8.50
2018-12-27T01:26:31.699Z,9.33
2018-12-27T01:27:38.206Z,9.13
2018-12-27T01:28:44.864Z,8.40
2018-12-27T01:29:51.416Z,8.35
2018-12-27T01:30:57.993Z,8.35
2018-12-27T01:32:04.434Z,8.03
2018-12-27T01:33:18.711Z,7.78
2018-12-27T01:34:20.590Z,7.90
2018-12-27T01:35:26.881Z,7.85
2018-12-27T01:36:33.500Z,8.03
2018-12-27T01:37:40.154Z,8.20
2018-12-27T01:38:49.937Z,8.73
2018-12-27T01:39:56.502Z,8.03
2018-12-27T01:41:02.962Z,8.23
2018-12-27T01:42:09.436Z,8.43
2018-12-27T01:43:16.131Z,8.35
2018-12-27T01:44:22.781Z,7.55
2018-12-27T01:45:30.698Z,7.95
2018-12-27T01:46:37.117Z,8.18
2018-12-27T01:47:43.584Z,8.33
2018-12-27T01:48:50.040Z,8.90
2018-12-27T01:49:56.386Z,7.60
2018-12-27T01:51:03.205Z,8.50
2018-12-27T01:52:12.085Z,7.53
2018-12-27T01:53:18.599Z,8.13
2018-12-27T01:54:25.122Z,8.70
2018-12-27T01:55:34.209Z,8.58
2018-12-27T01:56:42.271Z,8.03
2018-12-27T01:57:49.104Z,8.05
2018-12-27T01:58:55.524Z,8.23
2018-12-27T02:00:02.066Z,8.63
2018-12-27T02:01:08.705Z,7.58
2018-12-27T02:02:15.286Z,8.53
2018-12-27T02:03:26.456Z,7.50
2018-12-27T02:04:29.871Z,7.65
2018-12-27T02:05:36.481Z,8.03
2018-12-27T02:06:43.041Z,7.37
2018-12-27T02:07:49.710Z,7.33
2018-12-27T02:08:56.418Z,7.70
2018-12-27T02:10:03.972Z,8.13
2018-12-27T02:11:10.539Z,7.58
2018-12-27T02:12:17.160Z,7.35
2018-12-27T02:13:23.993Z,7.62
2018-12-27T02:14:30.281Z,7.62
2018-12-27T02:15:36.904Z,7.83
2018-12-27T02:16:43.419Z,7.83
2018-12-27T02:17:49.933Z,6.65
2018-12-27T02:18:56.467Z,7.50
2018-12-27T02:20:03.089Z,7.58
2018-12-27T02:21:09.643Z,7.00
2018-12-27T02:22:16.188Z,7.50
2018-12-27T02:23:22.625Z,7.72
2018-12-27T02:24:29.210Z,6.70
2018-12-27T02:25:36.003Z,8.30
2018-12-27T02:26:42.510Z,8.13
2018-12-27T02:27:49.351Z,7.17
2018-12-27T02:28:57.186Z,7.28
2018-12-27T02:30:05.357Z,7.87
2018-12-27T02:31:14.539Z,6.92
2018-12-27T02:32:22.539Z,6.83
2018-12-27T02:33:35.236Z,7.17
2018-12-27T02:34:37.354Z,7.10
2018-12-27T02:35:44.349Z,7.10
2018-12-27T02:36:50.696Z,6.75
2018-12-27T02:37:58.944Z,6.83
2018-12-27T02:39:06.043Z,6.67
2018-12-27T02:40:12.454Z,5.95
2018-12-27T02:41:19.092Z,6.72
2018-12-27T02:42:26.747Z,6.53
2018-12-27T02:43:33.176Z,6.85
2018-12-27T02:44:39.763Z,6.15
2018-12-27T02:45:46.389Z,6.97
2018-12-27T02:46:53.268Z,7.72
2018-12-27T02:47:59.635Z,6.33
2018-12-27T02:49:06.287Z,7.20
2018-12-27T02:50:12.876Z,7.20
2018-12-27T02:51:19.350Z,6.72
2018-12-27T02:52:25.839Z,6.72
2018-12-27T02:53:32.364Z,6.58
2018-12-27T02:54:39.126Z,6.78
2018-12-27T02:55:45.651Z,5.97
2018-12-27T02:56:52.124Z,6.40
2018-12-27T02:57:59.019Z,6.95
2018-12-27T02:59:05.578Z,6.22
2018-12-27T03:00:11.966Z,6.78
2018-12-27T03:01:18.450Z,6.58
2018-12-27T03:02:24.765Z,6.45
2018-12-27T03:03:31.328Z,6.55
2018-12-27T03:04:37.751Z,6.40
2018-12-27T03:05:44.410Z,6.65
2018-12-27T03:06:51.144Z,6.75
2018-12-27T03:07:57.810Z,7.08
2018-12-27T03:09:05.839Z,6.53
2018-12-27T03:10:12.457Z,6.28
2018-12-27T03:11:19.056Z,6.95
2018-12-27T03:12:25.467Z,6.45
2018-12-27T03:13:32.268Z,6.50
2018-12-27T03:14:38.905Z,5.97
2018-12-27T03:15:45.313Z,6.40
2018-12-27T03:16:52.175Z,6.87
2018-12-27T03:17:58.723Z,6.62
2018-12-27T03:19:05.225Z,6.10
2018-12-27T03:20:11.799Z,6.17
2018-12-27T03:21:18.809Z,6.33
2018-12-27T03:22:25.356Z,6.17
2018-12-27T03:23:33.365Z,6.58
2018-12-27T03:24:39.697Z,6.25
2018-12-27T03:25:46.321Z,7.30
2018-12-27T03:26:52.639Z,6.72
2018-12-27T03:27:58.921Z,6.72
2018-12-27T03:29:05.432Z,6.42
2018-12-27T03:30:11.797Z,6.87
2018-12-27T03:31:18.370Z,6.15
2018-12-27T03:32:24.855Z,6.67
2018-12-27T03:33:31.553Z,6.90
2018-12-27T03:34:38.029Z,6.87
2018-12-27T03:35:44.458Z,6.22
2018-12-27T03:36:51.072Z,6.87
2018-12-27T03:37:57.608Z,6.47
2018-12-27T03:39:07.733Z,6.50
2018-12-27T03:40:15.272Z,6.67
2018-12-27T03:41:21.710Z,6.87
2018-12-27T03:42:28.270Z,6.78
2018-12-27T03:43:34.701Z,6.58
2018-12-27T03:44:41.252Z,6.25
2018-12-27T03:45:47.590Z,7.03
2018-12-27T03:46:53.943Z,6.58
2018-12-27T03:48:01.625Z,7.10
2018-12-27T03:49:08.035Z,6.83
2018-12-27T03:50:14.589Z,6.90
2018-12-27T03:51:20.994Z,5.80
2018-12-27T03:52:29.909Z,6.65
2018-12-27T03:53:36.261Z,6.85
2018-12-27T03:54:43.596Z,7.08
2018-12-27T03:55:50.038Z,7.20
2018-12-27T03:56:59.332Z,6.78
2018-12-27T03:58:05.679Z,6.20
2018-12-27T03:59:13.872Z,6.67
2018-12-27T04:00:20.425Z,7.33
2018-12-27T04:01:26.850Z,6.87
2018-12-27T04:02:33.380Z,6.30
2018-12-27T04:03:41.961Z,6.72
2018-12-27T04:04:48.866Z,6.80
2018-12-27T04:05:55.334Z,6.25
2018-12-27T04:07:01.648Z,6.30
2018-12-27T04:08:11.009Z,6.83
2018-12-27T04:09:17.467Z,6.62
2018-12-27T04:10:24.053Z,7.08
2018-12-27T04:11:33.562Z,6.97
2018-12-27T04:12:39.873Z,6.47
2018-12-27T04:13:48.195Z,7.00
2018-12-27T04:14:54.557Z,7.20
2018-12-27T04:16:02.026Z,6.53
2018-12-27T04:17:08.448Z,6.55
2018-12-27T04:18:14.966Z,7.15
2018-12-27T04:19:21.399Z,6.72
2018-12-27T04:20:27.831Z,6.60
2018-12-27T04:21:34.380Z,7.15
2018-12-27T04:22:40.742Z,6.80
2018-12-27T04:23:47.833Z,6.70
2018-12-27T04:24:54.308Z,6.20
2018-12-27T04:26:01.132Z,6.87
2018-12-27T04:27:09.747Z,6.45
2018-12-27T04:28:19.209Z,6.20
2018-12-27T04:29:25.488Z,6.00
2018-12-27T04:30:32.439Z,6.67
2018-12-27T04:31:39.222Z,6.53
2018-12-27T04:32:46.106Z,6.22
2018-12-27T04:33:53.581Z,6.15
2018-12-27T04:35:00.420Z,6.70
2018-12-27T04:36:07.790Z,6.75
2018-12-27T04:37:14.455Z,6.85
2018-12-27T04:38:21.134Z,6.45
2018-12-27T04:39:27.536Z,6.53
2018-12-27T04:40:33.885Z,7.30
2018-12-27T04:41:41.000Z,6.97
2018-12-27T04:42:47.505Z,6.72
2018-12-27T04:43:54.070Z,7.50
2018-12-27T04:45:00.425Z,6.75
2018-12-27T04:46:10.247Z,6.53
2018-12-27T04:47:16.749Z,6.00
2018-12-27T04:48:23.260Z,6.70
2018-12-27T04:49:30.355Z,6.65
2018-12-27T04:50:36.853Z,6.60
2018-12-27T04:51:43.342Z,6.80
2018-12-27T04:52:49.820Z,6.15
2018-12-27T04:53:58.253Z,6.40
2018-12-27T04:55:04.762Z,6.17
2018-12-27T04:56:11.510Z,6.08
2018-12-27T04:57:17.966Z,6.40
2018-12-27T04:58:24.441Z,7.58
2018-12-27T04:59:30.788Z,6.85
2018-12-27T05:00:37.298Z,6.30
2018-12-27T05:01:43.992Z,6.42
2018-12-27T05:02:50.592Z,6.40
2018-12-27T05:03:57.285Z,5.95
2018-12-27T05:05:03.765Z,6.53
2018-12-27T05:06:10.275Z,6.55
2018-12-27T05:07:17.024Z,6.15
2018-12-27T05:08:23.564Z,6.42
2018-12-27T05:09:30.103Z,6.42
2018-12-27T05:10:36.753Z,6.30
2018-12-27T05:11:43.232Z,6.60
2018-12-27T05:12:49.649Z,7.17
2018-12-27T05:13:56.079Z,7.17
2018-12-27T05:15:02.464Z,7.20
2018-12-27T05:16:08.864Z,7.42
2018-12-27T05:17:15.389Z,6.35
2018-12-27T05:18:23.646Z,6.90
2018-12-27T05:19:29.701Z,7.25
2018-12-27T05:20:36.077Z,6.85
2018-12-27T05:21:42.547Z,6.70
2018-12-27T05:22:49.086Z,6.35
2018-12-27T05:23:55.622Z,6.95
2018-12-27T05:25:02.110Z,6.42
2018-12-27T05:26:08.517Z,6.83
2018-12-27T05:27:14.824Z,6.92
2018-12-27T05:28:21.369Z,6.55
2018-12-27T05:29:27.820Z,6.67
2018-12-27T05:30:34.162Z,7.22
2018-12-27T05:31:41.130Z,7.55
2018-12-27T05:32:47.582Z,7.12
2018-12-27T05:33:55.753Z,7.35
2018-12-27T05:35:02.256Z,7.58
2018-12-27T05:36:08.921Z,7.30
2018-12-27T05:37:18.452Z,7.15
2018-12-27T05:38:27.108Z,7.80
2018-12-27T05:39:40.908Z,7.80
2018-12-27T05:40:47.265Z,7.78
2018-12-27T05:41:53.704Z,8.38
2018-12-27T05:43:00.159Z,8.30
2018-12-27T05:44:06.632Z,9.35
2018-12-27T05:45:13.127Z,8.48
2018-12-27T05:46:19.624Z,9.63
2018-12-27T05:47:25.962Z,8.78
2018-12-27T05:48:32.297Z,8.43
2018-12-27T05:49:39.853Z,8.83
2018-12-27T05:50:48.657Z,8.55
2018-12-27T05:51:55.010Z,8.58
2018-12-27T05:53:03.310Z,8.48
2018-12-27T05:54:12.958Z,7.92
2018-12-27T05:55:19.401Z,8.70
2018-12-27T05:56:25.816Z,8.30
2018-12-27T05:57:32.262Z,8.20
2018-12-27T05:58:38.718Z,8.68
2018-12-27T05:59:45.096Z,9.40
2018-12-27T06:00:51.574Z,9.10
2018-12-27T06:01:58.085Z,8.40
2018-12-27T06:03:04.566Z,8.80
2018-12-27T06:04:11.033Z,9.20
2018-12-27T06:05:17.483Z,9.88
2018-12-27T06:06:23.972Z,9.35
2018-12-27T06:07:30.498Z,9.60
2018-12-27T06:08:36.723Z,10.63
2018-12-27T06:09:44.582Z,10.30
2018-12-27T06:10:51.070Z,10.03
2018-12-27T06:11:57.529Z,11.25
2018-12-27T06:13:03.940Z,10.10
2018-12-27T06:14:10.456Z,10.58
2018-12-27T06:15:16.947Z,10.70
2018-12-27T06:16:23.511Z,10.63
2018-12-27T06:17:30.010Z,11.48
2018-12-27T06:18:36.426Z,10.98
2018-12-27T06:19:42.887Z,10.65
2018-12-27T06:20:49.350Z,10.55
2018-12-27T06:21:55.848Z,10.93
2018-12-27T06:23:02.620Z,11.03
2018-12-27T06:24:09.325Z,12.20
2018-12-27T06:25:15.658Z,11.93
2018-12-27T06:26:22.039Z,11.88
2018-12-27T06:27:28.245Z,10.75
2018-12-27T06:28:35.774Z,10.93
2018-12-27T06:29:42.179Z,11.38
2018-12-27T06:30:48.565Z,12.47
2018-12-27T06:31:54.965Z,12.45
2018-12-27T06:33:01.393Z,11.28
2018-12-27T06:34:07.863Z,12.45
2018-12-27T06:35:14.420Z,12.63
2018-12-27T06:36:20.881Z,12.33
2018-12-27T06:37:27.808Z,12.63
2018-12-27T06:38:34.141Z,13.93
2018-12-27T06:39:40.790Z,13.75
2018-12-27T06:40:48.938Z,15.38
2018-12-27T06:41:55.429Z,15.13
2018-12-27T06:43:03.800Z,13.58
2018-12-27T06:44:10.297Z,13.48
2018-12-27T06:45:16.802Z,14.05
2018-12-27T06:46:23.713Z,14.18
2018-12-27T06:47:30.172Z,13.83
2018-12-27T06:48:36.452Z,13.60
2018-12-27T06:49:42.824Z,12.45
2018-12-27T06:50:49.244Z,14.58
2018-12-27T06:51:55.744Z,14.93
2018-12-27T06:53:02.149Z,14.13
2018-12-27T06:54:08.729Z,13.72
2018-12-27T06:55:15.148Z,13.95
2018-12-27T06:56:21.592Z,13.38
2018-12-27T06:57:28.097Z,13.05
2018-12-27T06:58:37.806Z,13.13
2018-12-27T06:59:42.443Z,12.73
2018-12-27T07:00:48.938Z,12.98
2018-12-27T07:01:55.481Z,13.28
2018-12-27T07:03:01.928Z,13.68
2018-12-27T07:04:08.745Z,14.55
2018-12-27T07:05:15.619Z,16.52
2018-12-27T07:06:22.146Z,19.07
2018-12-27T07:07:28.513Z,27.37
2018-12-27T07:08:34.872Z,22.87
2018-12-27T07:09:41.276Z,21.80
2018-12-27T07:10:47.823Z,17.42
2018-12-27T07:11:56.374Z,54.15
2018-12-27T07:13:03.028Z,39.50
2018-12-27T07:14:09.927Z,31.95
2018-12-27T07:15:16.684Z,74.67
2018-12-27T07:16:23.473Z,48.13
2018-12-27T07:17:30.194Z,23.32
2018-12-27T07:18:36.698Z,41.37
2018-12-27T07:19:43.283Z,38.35
2018-12-27T07:20:50.485Z,23.45
2018-12-27T07:21:57.076Z,24.02
2018-12-27T07:23:03.884Z,21.70
2018-12-27T07:24:10.873Z,20.68
2018-12-27T07:25:17.505Z,16.12
2018-12-27T07:26:27.147Z,15.95
2018-12-27T07:27:33.591Z,16.40
2018-12-27T07:28:42.705Z,16.82
2018-12-27T07:29:49.494Z,16.80
2018-12-27T07:30:56.194Z,16.60
2018-12-27T07:32:02.909Z,15.88
2018-12-27T07:33:09.692Z,16.42
2018-12-27T07:34:17.852Z,16.60
2018-12-27T07:35:24.486Z,16.07
2018-12-27T07:36:34.242Z,16.87
2018-12-27T07:37:44.031Z,17.02
2018-12-27T07:38:52.363Z,16.93
2018-12-27T07:39:59.160Z,15.98
2018-12-27T07:41:05.850Z,16.67
2018-12-27T07:42:12.626Z,17.35
2018-12-27T07:43:21.818Z,16.65
2018-12-27T07:44:28.323Z,15.20
2018-12-27T07:45:34.970Z,15.20
2018-12-27T07:46:42.012Z,16.10
2018-12-27T07:47:48.951Z,14.18
2018-12-27T07:48:55.660Z,14.70
2018-12-27T07:50:03.663Z,15.88
2018-12-27T07:51:10.460Z,14.43
2018-12-27T07:52:19.201Z,15.10
2018-12-27T07:53:25.990Z,15.85
2018-12-27T07:54:32.535Z,15.43
2018-12-27T07:55:39.024Z,16.15
2018-12-27T07:56:46.982Z,16.70
2018-12-27T07:57:53.604Z,16.10
2018-12-27T07:59:00.191Z,16.87
2018-12-27T08:00:07.240Z,16.52
2018-12-27T08:01:14.666Z,14.47
2018-12-27T08:02:21.354Z,16.05
2018-12-27T08:03:33.028Z,14.18
2018-12-27T08:04:39.931Z,14.68
2018-12-27T08:05:46.577Z,14.90
2018-12-27T08:06:53.366Z,15.32
2018-12-27T08:08:03.119Z,14.98
2018-12-27T08:09:10.177Z,14.58
2018-12-27T08:10:16.939Z,14.18
2018-12-27T08:11:23.588Z,15.55
2018-12-27T08:12:31.185Z,14.28
2018-12-27T08:13:38.887Z,15.25
2018-12-27T08:14:46.328Z,16.23
2018-12-27T08:15:53.747Z,15.25
2018-12-27T08:17:01.564Z,13.85
2018-12-27T08:18:08.903Z,14.58
2018-12-27T08:19:16.183Z,14.73
2018-12-27T08:20:24.430Z,13.65
2018-12-27T08:21:32.179Z,12.98
2018-12-27T08:22:39.869Z,14.20
2018-12-27T08:23:46.474Z,13.53
2018-12-27T08:24:52.924Z,14.45
2018-12-27T08:25:59.475Z,14.75
2018-12-27T08:27:06.514Z,15.50
2018-12-27T08:28:15.385Z,14.75
2018-12-27T08:29:23.280Z,16.85
2018-12-27T08:30:32.628Z,16.48
2018-12-27T08:31:41.906Z,15.85
2018-12-27T08:32:51.899Z,15.63
2018-12-27T08:34:00.893Z,14.23
2018-12-27T08:35:11.990Z,15.80
2018-12-27T08:36:21.615Z,15.32
2018-12-27T08:37:31.558Z,15.18
2018-12-27T08:38:40.769Z,14.95
2018-12-27T08:39:48.957Z,15.28
2018-12-27T08:40:56.923Z,12.85
2018-12-27T08:42:04.701Z,13.05
2018-12-27T08:43:11.117Z,11.75
2018-12-27T08:44:17.864Z,13.30
2018-12-27T08:45:24.713Z,13.50
2018-12-27T08:46:31.283Z,12.50
2018-12-27T08:47:37.815Z,12.82
2018-12-27T08:48:45.223Z,12.43
2018-12-27T08:49:54.104Z,12.05
2018-12-27T08:51:00.730Z,11.00
2018-12-27T08:52:07.284Z,10.63
2018-12-27T08:53:14.029Z,11.35
2018-12-27T08:54:21.998Z,11.93
2018-12-27T08:55:32.294Z,11.15
2018-12-27T08:56:41.741Z,12.25
2018-12-27T08:57:51.372Z,11.33
2018-12-27T08:59:02.037Z,12.85
2018-12-27T09:00:11.136Z,12.93
2018-12-27T09:01:22.799Z,12.45
2018-12-27T09:02:32.219Z,12.55
2018-12-27T09:03:41.238Z,12.40
2018-12-27T09:04:48.049Z,12.58
2018-12-27T09:05:56.826Z,12.90
2018-12-27T09:07:05.666Z,12.82
2018-12-27T09:08:13.727Z,13.68
2018-12-27T09:09:21.241Z,14.30
2018-12-27T09:10:28.739Z,13.55
2018-12-27T09:11:35.337Z,13.60
2018-12-27T09:12:45.043Z,13.98
2018-12-27T09:13:51.841Z,13.25
2018-12-27T09:14:58.572Z,14.63
2018-12-27T09:16:07.660Z,13.78
2018-12-27T09:17:15.987Z,13.93
2018-12-27T09:18:23.678Z,14.00
2018-12-27T09:19:30.133Z,13.48
2018-12-27T09:20:36.792Z,14.68
2018-12-27T09:21:44.597Z,14.33
2018-12-27T09:22:51.366Z,15.35
2018-12-27T09:23:58.248Z,14.80
2018-12-27T09:25:04.832Z,15.18
2018-12-27T09:26:11.725Z,14.33
2018-12-27T09:27:18.843Z,14.23
2018-12-27T09:28:25.822Z,15.38
2018-12-27T09:29:32.938Z,14.15
2018-12-27T09:30:39.939Z,14.98
2018-12-27T09:31:48.578Z,15.45
2018-12-27T09:32:55.710Z,15.68
2018-12-27T09:34:05.443Z,15.08
2018-12-27T09:35:15.701Z,15.55
2018-12-27T09:36:24.796Z,16.48
2018-12-27T09:37:34.211Z,16.23
2018-12-27T09:38:42.833Z,16.67
2018-12-27T09:39:49.444Z,16.50
2018-12-27T09:40:57.610Z,16.90
2018-12-27T09:42:04.436Z,16.10
2018-12-27T09:43:14.056Z,16.45
2018-12-27T09:44:22.094Z,16.73
2018-12-27T09:45:30.676Z,17.23
2018-12-27T09:46:38.922Z,16.55
2018-12-27T09:47:46.655Z,17.87
2018-12-27T09:48:53.711Z,17.05
2018-12-27T09:50:02.777Z,16.67
2018-12-27T09:51:11.891Z,17.00
2018-12-27T09:52:19.062Z,17.45
2018-12-27T09:53:25.556Z,17.52
2018-12-27T09:54:31.961Z,17.73
2018-12-27T09:55:38.463Z,16.70
2018-12-27T09:56:45.363Z,17.73
2018-12-27T09:57:52.171Z,17.02
2018-12-27T09:58:59.670Z,16.82
2018-12-27T10:00:08.036Z,17.12
2018-12-27T10:01:16.665Z,16.65
2018-12-27T10:02:25.501Z,16.93
2018-12-27T10:03:33.880Z,16.35
2018-12-27T10:04:43.102Z,17.37
2018-12-27T10:05:49.930Z,15.32
2018-12-27T10:06:56.659Z,16.30
2018-12-27T10:08:04.910Z,15.88
2018-12-27T10:09:13.497Z,16.02
2018-12-27T10:10:19.914Z,15.65
2018-12-27T10:11:26.772Z,15.75
2018-12-27T10:12:33.601Z,16.07
2018-12-27T10:13:40.522Z,15.18
2018-12-27T10:14:49.145Z,16.35
2018-12-27T10:15:57.380Z,15.90
2018-12-27T10:17:05.419Z,14.38
2018-12-27T10:18:11.953Z,14.70
2018-12-27T10:19:18.695Z,13.85
2018-12-27T10:20:25.308Z,13.45
2018-12-27T10:21:36.354Z,12.82
2018-12-27T10:22:48.725Z,13.35
2018-12-27T10:23:58.136Z,13.38
2018-12-27T10:25:05.959Z,12.75
2018-12-27T10:26:14.763Z,12.15
2018-12-27T10:27:23.574Z,12.65
2018-12-27T10:28:33.421Z,11.65
2018-12-27T10:29:42.952Z,11.53
2018-12-27T10:30:52.009Z,11.93
2018-12-27T10:32:00.787Z,10.45
2018-12-27T10:33:09.336Z,10.50
2018-12-27T10:34:18.398Z,10.55
2018-12-27T10:35:27.682Z,10.25
2018-12-27T10:36:36.439Z,10.93
2018-12-27T10:37:46.082Z,9.63
2018-12-27T10:38:56.079Z,10.55
2018-12-27T10:40:04.622Z,9.88
2018-12-27T10:41:13.722Z,11.35
2018-12-27T10:42:23.118Z,9.98
2018-12-27T10:43:32.652Z,9.30
2018-12-27T10:44:42.103Z,9.58
2018-12-27T10:45:51.421Z,10.10
2018-12-27T10:47:01.277Z,9.35
2018-12-27T10:48:08.069Z,9.68
2018-12-27T10:49:14.587Z,8.53
2018-12-27T10:50:22.977Z,9.58
2018-12-27T10:51:32.343Z,9.38
2018-12-27T10:52:42.949Z,9.13
2018-12-27T10:53:52.569Z,9.28
2018-12-27T10:54:59.555Z,9.78
2018-12-27T10:56:07.772Z,8.88
2018-12-27T10:57:14.323Z,9.08
2018-12-27T10:58:20.868Z,8.78
2018-12-27T10:59:27.638Z,8.55
2018-12-27T11:00:34.170Z,9.03
2018-12-27T11:01:41.546Z,8.58
2018-12-27T11:02:48.470Z,9.05
2018-12-27T11:03:55.486Z,8.95
2018-12-27T11:05:04.282Z,9.23
2018-12-27T11:06:11.197Z,9.88
2018-12-27T11:07:19.878Z,9.33
2018-12-27T11:08:26.513Z,9.43
2018-12-27T11:09:32.961Z,8.90
2018-12-27T11:10:41.190Z,9.38
2018-12-27T11:11:49.339Z,9.75
2018-12-27T11:12:58.032Z,10.15
2018-12-27T11:14:08.969Z,9.78
2018-12-27T11:15:19.452Z,9.33
2018-12-27T11:16:25.992Z,9.45
2018-12-27T11:17:32.494Z,9.25
2018-12-27T11:18:40.262Z,9.45
2018-12-27T11:19:46.721Z,10.93
2018-12-27T11:20:53.283Z,9.25
2018-12-27T11:22:01.656Z,10.63
2018-12-27T11:23:11.431Z,10.53
2018-12-27T11:24:20.270Z,10.70
2018-12-27T11:25:27.016Z,10.75
2018-12-27T11:26:33.718Z,10.32
2018-12-27T11:27:40.219Z,10.85
2018-12-27T11:28:46.873Z,11.03
2018-12-27T11:29:54.991Z,10.80
2018-12-27T11:31:02.698Z,10.88
2018-12-27T11:32:09.061Z,10.82
2018-12-27T11:33:16.282Z,10.10
2018-12-27T11:34:26.122Z,10.45
2018-12-27T11:35:34.758Z,10.18
2018-12-27T11:36:43.438Z,11.28
2018-12-27T11:37:53.148Z,10.23
2018-12-27T11:39:04.545Z,10.13
2018-12-27T11:40:15.045Z,10.65
2018-12-27T11:41:22.496Z,11.60
2018-12-27T11:42:32.194Z,10.80
2018-12-27T11:43:41.718Z,11.90
2018-12-27T11:44:51.043Z,11.60
2018-12-27T11:46:00.957Z,11.12
2018-12-27T11:47:07.637Z,11.85
2018-12-27T11:48:15.699Z,12.18
2018-12-27T11:49:24.306Z,10.90
2018-12-27T11:50:32.527Z,11.43
2018-12-27T11:51:40.859Z,12.20
2018-12-27T11:52:49.661Z,11.63
2018-12-27T11:54:01.973Z,11.65
2018-12-27T11:55:13.798Z,12.18
2018-12-27T11:56:20.836Z,12.20
2018-12-27T11:57:27.908Z,13.65
2018-12-27T11:58:35.372Z,13.32
2018-12-27T11:59:44.080Z,13.75
2018-12-27T12:00:52.587Z,13.58
2018-12-27T12:02:01.499Z,13.38
2018-12-27T12:03:10.722Z,13.80
2018-12-27T12:04:20.675Z,12.43
2018-12-27T12:05:29.639Z,13.35
2018-12-27T12:06:37.072Z,14.43
2018-12-27T12:07:44.216Z,14.43
2018-12-27T12:08:52.761Z,14.70
2018-12-27T12:10:02.176Z,15.00
2018-12-27T12:11:11.639Z,13.60
2018-12-27T12:12:22.563Z,15.68
2018-12-27T12:13:32.064Z,16.05
2018-12-27T12:14:39.069Z,15.53
2018-12-27T12:15:45.599Z,15.80
2018-12-27T12:16:54.798Z,15.08
2018-12-27T12:18:03.770Z,15.58
2018-12-27T12:19:10.351Z,16.05
2018-12-27T12:20:16.825Z,15.90
2018-12-27T12:21:23.641Z,16.02
2018-12-27T12:22:32.020Z,16.87
2018-12-27T12:23:44.289Z,16.05
2018-12-27T12:24:53.865Z,17.05
2018-12-27T12:26:03.485Z,16.93
2018-12-27T12:27:12.791Z,15.83
2018-12-27T12:28:22.292Z,15.08
2018-12-27T12:29:31.641Z,16.07
2018-12-27T12:30:40.401Z,16.97
2018-12-27T12:31:49.141Z,17.07
2018-12-27T12:32:58.178Z,16.70
2018-12-27T12:34:07.480Z,16.87
2018-12-27T12:35:16.062Z,15.95
2018-12-27T12:36:24.854Z,15.38
2018-12-27T12:37:36.045Z,16.62
2018-12-27T12:38:44.810Z,16.27
2018-12-27T12:39:54.566Z,17.48
2018-12-27T12:41:03.353Z,16.97
2018-12-27T12:42:12.004Z,17.35
2018-12-27T12:43:23.294Z,18.00
2018-12-27T12:44:32.614Z,17.67
2018-12-27T12:45:41.897Z,16.85
2018-12-27T12:46:53.117Z,18.00
2018-12-27T12:48:01.257Z,16.62
2018-12-27T12:49:11.353Z,18.05
2018-12-27T12:50:18.016Z,18.32
2018-12-27T12:51:24.811Z,18.12
2018-12-27T12:52:31.720Z,20.12
2018-12-27T12:53:38.257Z,19.62
2018-12-27T12:54:44.808Z,17.52
2018-12-27T12:55:54.412Z,17.32
2018-12-27T12:57:06.027Z,18.60
2018-12-27T12:58:12.648Z,18.87
2018-12-27T12:59:19.224Z,18.12
2018-12-27T13:00:25.914Z,17.77
2018-12-27T13:01:34.425Z,18.23
2018-12-27T13:02:42.030Z,18.23
2018-12-27T13:03:48.679Z,18.50
2018-12-27T13:04:55.291Z,19.60
2018-12-27T13:06:02.241Z,20.30
2018-12-27T13:07:10.876Z,19.20
2018-12-27T13:08:20.093Z,20.27
2018-12-27T13:09:28.929Z,18.52
2018-12-27T13:10:38.396Z,21.12
2018-12-27T13:11:46.990Z,22.48
2018-12-27T13:12:53.731Z,16.37
2018-12-27T13:14:00.560Z,23.00
2018-12-27T13:15:07.326Z,18.98
2018-12-27T13:16:18.753Z,15.72
2018-12-27T13:17:26.741Z,16.87
2018-12-27T13:18:35.099Z,15.38
2018-12-27T13:19:43.624Z,17.12
2018-12-27T13:20:50.912Z,15.98
2018-12-27T13:21:57.818Z,15.63
2018-12-27T13:23:04.465Z,15.48
2018-12-27T13:24:12.681Z,14.63
2018-12-27T13:25:20.865Z,15.63
2018-12-27T13:26:30.637Z,16.07
2018-12-27T13:27:37.229Z,15.28
2018-12-27T13:28:44.636Z,15.53
2018-12-27T13:29:55.268Z,16.23
2018-12-27T13:31:05.972Z,15.50
2018-12-27T13:32:15.270Z,15.30
2018-12-27T13:33:25.888Z,16.48
2018-12-27T13:34:34.860Z,16.85
2018-12-27T13:35:44.035Z,17.42
2018-12-27T13:36:51.034Z,17.07
2018-12-27T13:37:57.887Z,18.23
2018-12-27T13:39:05.740Z,17.50
2018-12-27T13:40:12.413Z,17.98
2018-12-27T13:41:18.935Z,17.60
2018-12-27T13:42:25.361Z,16.82
2018-12-27T13:43:33.349Z,17.07
2018-12-27T13:44:40.089Z,17.90
2018-12-27T13:45:46.887Z,16.35
2018-12-27T13:46:57.976Z,17.05
2018-12-27T13:48:07.408Z,16.17
2018-12-27T13:49:17.658Z,16.12
2018-12-27T13:50:27.030Z,15.50
2018-12-27T13:51:34.122Z,16.02
2018-12-27T13:52:40.903Z,17.20
2018-12-27T13:53:47.785Z,15.85
2018-12-27T13:54:54.286Z,15.05
2018-12-27T13:56:02.527Z,16.20
2018-12-27T13:57:09.090Z,15.50
2018-12-27T13:58:15.620Z,15.90
2018-12-27T13:59:22.268Z,14.85
2018-12-27T14:00:28.782Z,14.07
2018-12-27T14:01:35.527Z,14.53
2018-12-27T14:02:42.178Z,14.93
2018-12-27T14:03:53.353Z,14.47
2018-12-27T14:05:02.706Z,14.47
2018-12-27T14:06:12.215Z,13.48
2018-12-27T14:07:22.462Z,12.93
2018-12-27T14:08:31.853Z,13.93
2018-12-27T14:09:40.223Z,14.20
2018-12-27T14:10:47.100Z,13.18
2018-12-27T14:11:53.973Z,13.35
2018-12-27T14:13:00.858Z,13.03
2018-12-27T14:14:07.646Z,14.90
2018-12-27T14:15:14.169Z,14.23
2018-12-27T14:16:20.648Z,14.78
2018-12-27T14:17:27.443Z,14.13
2018-12-27T14:18:35.535Z,15.58
2018-12-27T14:19:42.331Z,15.70
2018-12-27T14:20:48.835Z,16.10
2018-12-27T14:21:56.026Z,16.05
2018-12-27T14:23:02.502Z,16.67
2018-12-27T14:24:08.941Z,16.67
2018-12-27T14:25:16.494Z,15.10
2018-12-27T14:26:28.962Z,16.57
2018-12-27T14:27:37.274Z,14.98
2018-12-27T14:28:43.892Z,15.28
2018-12-27T14:29:50.681Z,14.80
2018-12-27T14:30:57.346Z,15.80
2018-12-27T14:32:05.580Z,16.52
2018-12-27T14:33:12.703Z,15.40
2018-12-27T14:34:19.782Z,16.10
2018-12-27T14:35:27.979Z,16.73
2018-12-27T14:36:41.026Z,16.42
2018-12-27T14:37:52.390Z,16.95
2018-12-27T14:39:01.103Z,17.62
2018-12-27T14:40:09.757Z,16.48
2018-12-27T14:41:16.384Z,17.37
2018-12-27T14:42:26.803Z,18.45